WST516 MYNN-MYEH
Flight info
| Callsign | WST516 |
|---|---|
| Flight time | 0h 15m |
| Altitude | 7000 |
| Route | JAVIS2 JEDIK |
| Aircraft | E145/M-SDFGIRW/S |
Departure
| Time | 2026-05-04 19:22 |
|---|---|
| Airport | Lynden Pindling International Airport (MYNN) |
Arrival
| Time | 2026-05-04 19:37 |
|---|---|
| Airport | North Eleuthera Airport (MYEH) |
| Time | Latitude | Longitude | Altitude | Speed | Heading |
|---|---|---|---|---|---|
| 2026-05-04 19:00 | 25.04747 | -77.46595 | 26 ft | 0 kts | 179° |
| 2026-05-04 19:18 | 25.04746 | -77.46595 | 26 ft | 0 kts | 179° |
| 2026-05-04 19:19 | 25.04720 | -77.46626 | 25 ft | 11 kts | 246° |
| 2026-05-04 19:19 | 25.04716 | -77.46732 | 23 ft | 16 kts | 242° |
| 2026-05-04 19:19 | 25.04752 | -77.46832 | 24 ft | 15 kts | 317° |
| 2026-05-04 19:19 | 25.04831 | -77.46916 | 26 ft | 15 kts | 307° |
| 2026-05-04 19:20 | 25.04911 | -77.47006 | 26 ft | 17 kts | 313° |
| 2026-05-04 19:20 | 25.05002 | -77.47109 | 26 ft | 23 kts | 314° |
| 2026-05-04 19:20 | 25.05154 | -77.47282 | 23 ft | 40 kts | 311° |
| 2026-05-04 19:20 | 25.05213 | -77.47450 | 22 ft | 11 kts | 246° |
| 2026-05-04 19:21 | 25.05144 | -77.47518 | 21 ft | 5 kts | 162° |
| 2026-05-04 19:21 | 25.05014 | -77.47381 | 24 ft | 62 kts | 134° |
| 2026-05-04 19:21 | 25.04531 | -77.46843 | 26 ft | 132 kts | 135° |
| 2026-05-04 19:21 | 25.03770 | -77.46010 | 199 ft | 166 kts | 135° |
| 2026-05-04 19:22 | 25.02935 | -77.45101 | 847 ft | 173 kts | 132° |
| 2026-05-04 19:22 | 25.02076 | -77.44121 | 1461 ft | 187 kts | 134° |
| 2026-05-04 19:22 | 25.01135 | -77.43072 | 1994 ft | 204 kts | 134° |
| 2026-05-04 19:22 | 25.00088 | -77.41910 | 2441 ft | 224 kts | 135° |
| 2026-05-04 19:23 | 24.99958 | -77.41765 | 2501 ft | 226 kts | 135° |
| 2026-05-04 19:23 | 24.98878 | -77.40434 | 3003 ft | 245 kts | 120° |
| 2026-05-04 19:23 | 24.98454 | -77.38612 | 3601 ft | 256 kts | 86° |
| 2026-05-04 19:23 | 24.99027 | -77.36756 | 4259 ft | 262 kts | 52° |
| 2026-05-04 19:24 | 25.00417 | -77.35503 | 4912 ft | 264 kts | 22° |
| 2026-05-04 19:24 | 25.02010 | -77.34422 | 5557 ft | 276 kts | 39° |
| 2026-05-04 19:24 | 25.03448 | -77.32980 | 6205 ft | 285 kts | 40° |
| 2026-05-04 19:24 | 25.04903 | -77.31476 | 6813 ft | 294 kts | 41° |
| 2026-05-04 19:25 | 25.06459 | -77.29853 | 6961 ft | 321 kts | 41° |
| 2026-05-04 19:25 | 25.08090 | -77.28145 | 6966 ft | 314 kts | 41° |
| 2026-05-04 19:25 | 25.09628 | -77.26535 | 6938 ft | 292 kts | 41° |
| 2026-05-04 19:25 | 25.11050 | -77.25046 | 6940 ft | 272 kts | 41° |
| 2026-05-04 19:26 | 25.12321 | -77.23614 | 6943 ft | 256 kts | 50° |
| 2026-05-04 19:26 | 25.13372 | -77.22096 | 6942 ft | 241 kts | 49° |
| 2026-05-04 19:26 | 25.14389 | -77.20679 | 6933 ft | 226 kts | 49° |
| 2026-05-04 19:26 | 25.15329 | -77.19375 | 6938 ft | 212 kts | 49° |
| 2026-05-04 19:27 | 25.16227 | -77.18130 | 6931 ft | 199 kts | 49° |
| 2026-05-04 19:27 | 25.17056 | -77.16981 | 6934 ft | 185 kts | 48° |
| 2026-05-04 19:27 | 25.17835 | -77.15901 | 6927 ft | 171 kts | 48° |
| 2026-05-04 19:27 | 25.18545 | -77.14917 | 6893 ft | 157 kts | 48° |
| 2026-05-04 19:28 | 25.19205 | -77.14001 | 6720 ft | 158 kts | 49° |
| 2026-05-04 19:28 | 25.20001 | -77.12898 | 6841 ft | 195 kts | 49° |
| 2026-05-04 19:28 | 25.20081 | -77.12788 | 6893 ft | 197 kts | 48° |
| 2026-05-04 19:29 | 25.20773 | -77.11835 | 6976 ft | 223 kts | 49° |
| 2026-05-04 19:29 | 25.21776 | -77.10442 | 6962 ft | 234 kts | 49° |
| 2026-05-04 19:29 | 25.22805 | -77.09014 | 6961 ft | 243 kts | 49° |
| 2026-05-04 19:29 | 25.23877 | -77.07526 | 6952 ft | 252 kts | 49° |
| 2026-05-04 19:30 | 25.24992 | -77.05978 | 6957 ft | 260 kts | 49° |
| 2026-05-04 19:30 | 25.26121 | -77.04410 | 6958 ft | 267 kts | 49° |
| 2026-05-04 19:30 | 25.27391 | -77.02847 | 6961 ft | 275 kts | 44° |
| 2026-05-04 19:30 | 25.28688 | -77.01360 | 6935 ft | 266 kts | 44° |
| 2026-05-04 19:31 | 25.29977 | -76.99878 | 6662 ft | 269 kts | 44° |
| 2026-05-04 19:31 | 25.31279 | -76.98378 | 6305 ft | 275 kts | 44° |
| 2026-05-04 19:31 | 25.32619 | -76.96836 | 5831 ft | 283 kts | 44° |
| 2026-05-04 19:31 | 25.33992 | -76.95254 | 5350 ft | 288 kts | 44° |
| 2026-05-04 19:32 | 25.35400 | -76.93631 | 4865 ft | 291 kts | 44° |
| 2026-05-04 19:32 | 25.36776 | -76.92043 | 4323 ft | 278 kts | 44° |
| 2026-05-04 19:32 | 25.38069 | -76.90551 | 3833 ft | 261 kts | 44° |
| 2026-05-04 19:32 | 25.39295 | -76.89138 | 3399 ft | 255 kts | 45° |
| 2026-05-04 19:33 | 25.40453 | -76.87657 | 2910 ft | 258 kts | 58° |
| 2026-05-04 19:33 | 25.41165 | -76.85828 | 2441 ft | 260 kts | 67° |
| 2026-05-04 19:33 | 25.41832 | -76.83987 | 1958 ft | 260 kts | 66° |
| 2026-05-04 19:33 | 25.42509 | -76.82120 | 1468 ft | 259 kts | 67° |
| 2026-05-04 19:34 | 25.43125 | -76.80415 | 1123 ft | 210 kts | 67° |
| 2026-05-04 19:34 | 25.43567 | -76.79187 | 1027 ft | 146 kts | 66° |
| 2026-05-04 19:34 | 25.43949 | -76.78140 | 973 ft | 151 kts | 66° |
| 2026-05-04 19:34 | 25.44344 | -76.77049 | 961 ft | 153 kts | 66° |
| 2026-05-04 19:35 | 25.44740 | -76.75956 | 956 ft | 148 kts | 66° |
| 2026-05-04 19:35 | 25.45100 | -76.74956 | 922 ft | 130 kts | 65° |
| 2026-05-04 19:35 | 25.45431 | -76.74023 | 837 ft | 133 kts | 66° |
| 2026-05-04 19:35 | 25.45770 | -76.73064 | 865 ft | 134 kts | 66° |
| 2026-05-04 19:36 | 25.46121 | -76.72081 | 808 ft | 140 kts | 66° |
| 2026-05-04 19:36 | 25.46495 | -76.71038 | 568 ft | 149 kts | 66° |
| 2026-05-04 19:36 | 25.46883 | -76.69991 | 305 ft | 142 kts | 66° |
| 2026-05-04 19:36 | 25.47241 | -76.69019 | 54 ft | 133 kts | 66° |
| 2026-05-04 19:37 | 25.47546 | -76.68185 | 24 ft | 77 kts | 68° |
| 2026-05-04 19:37 | 25.47625 | -76.67992 | 26 ft | 10 kts | 68° |
| 2026-05-04 19:37 | 25.47612 | -76.67992 | 26 ft | 5 kts | 245° |
| 2026-05-04 19:37 | 25.47585 | -76.68081 | 26 ft | 15 kts | 256° |
| 2026-05-04 19:38 | 25.47618 | -76.68185 | 25 ft | 8 kts | 338° |
| 2026-05-04 19:38 | 25.47640 | -76.68174 | 25 ft | 0 kts | 62° |